Time;durP1;ratioP1;P1;durP2;ratioP2;P2;SDS_P1;SDS_P2;PMS_P1;PMS_P2;Temp;Humidity;BMP_temperature;BMP_pressure;BME280_temperature;BME280_humidity;BME280_pressure;Samples;Min_cycle;Max_cycle;Signal;HPM_P1;HPM_P2
2023/09/22 00:00:38;;;;;;;6.20;4.82;;;;;;;21.35;60.38;99213.19;6135430;23;20002;-91
2023/09/22 00:03:05;;;;;;;7.65;4.80;;;;;;;21.28;60.32;99193.81;6112129;23;19997;-92
2023/09/22 00:05:30;;;;;;;10.57;5.55;;;;;;;21.33;60.25;99212.75;6135175;23;20001;-92
2023/09/22 00:07:56;;;;;;;12.50;5.65;;;;;;;21.29;61.13;99214.56;6134572;23;20001;-94
2023/09/22 00:10:22;;;;;;;10.02;5.43;;;;;;;21.15;61.40;99198.50;6135323;23;20009;-92
2023/09/22 00:12:47;;;;;;;11.85;6.18;;;;;;;21.07;61.45;99202.16;6135567;23;20002;-92
2023/09/22 00:15:13;;;;;;;11.88;5.50;;;;;;;20.98;61.72;99207.75;6135142;23;20008;-93
2023/09/22 00:17:39;;;;;;;9.85;5.30;;;;;;;20.96;61.60;99218.25;6136224;23;20005;-92
2023/09/22 00:20:11;;;;;;;8.48;5.32;;;;;;;20.93;61.69;99216.19;6134394;23;20005;-92
2023/09/22 00:22:37;;;;;;;10.13;5.85;;;;;;;20.94;61.91;99221.31;6113095;23;19997;-92
2023/09/22 00:25:03;;;;;;;8.90;5.55;;;;;;;20.85;62.32;99217.09;6158911;23;19988;-92
2023/09/22 00:27:29;;;;;;;10.30;5.47;;;;;;;20.91;62.55;99218.47;6159711;23;20069;-92
2023/09/22 00:29:54;;;;;;;7.70;5.80;;;;;;;20.84;62.29;99218.25;6134763;23;20036;-91
2023/09/22 00:32:21;;;;;;;9.52;5.72;;;;;;;20.76;62.61;99217.22;6134260;23;20421;-91
2023/09/22 00:34:46;;;;;;;10.73;5.70;;;;;;;20.74;62.57;99219.47;6110680;23;20019;-92
2023/09/22 00:37:14;;;;;;;10.55;5.97;;;;;;;20.63;62.73;99213.66;6136481;23;20002;-92
2023/09/22 00:39:40;;;;;;;9.57;6.03;;;;;;;20.62;63.13;99217.50;6109093;23;20080;-91
2023/09/22 00:42:09;;;;;;;11.52;6.45;;;;;;;20.53;63.10;99217.59;6134872;23;20428;-92
2023/09/22 00:44:38;;;;;;;11.25;5.50;;;;;;;20.41;63.16;99203.88;6134211;23;20005;-92
2023/09/22 00:47:05;;;;;;;12.50;6.05;;;;;;;20.37;63.40;99200.22;6135682;23;20005;-92
2023/09/22 00:49:31;;;;;;;7.25;5.55;;;;;;;20.35;63.84;99216.97;6136969;23;20008;-92
2023/09/22 00:51:56;;;;;;;9.65;5.85;;;;;;;20.35;64.10;99211.50;6134311;23;20088;-92
2023/09/22 00:54:22;;;;;;;10.25;5.72;;;;;;;20.28;64.04;99216.72;6133701;23;20033;-91
2023/09/22 00:56:47;;;;;;;11.57;6.00;;;;;;;20.30;64.32;99230.06;6135106;23;19998;-91
2023/09/22 00:59:15;;;;;;;8.50;5.60;;;;;;;20.29;64.21;99223.78;6110960;23;20317;-90
2023/09/22 01:01:42;;;;;;;10.02;5.07;;;;;;;20.23;64.52;99229.81;6135637;23;20001;-91
2023/09/22 01:04:08;;;;;;;11.27;5.82;;;;;;;20.25;64.66;99235.72;6160980;23;20060;-91
2023/09/22 01:06:35;;;;;;;13.80;5.35;;;;;;;20.17;65.06;99221.81;6109264;23;20002;-91
2023/09/22 01:09:05;;;;;;;15.32;5.72;;;;;;;20.13;64.53;99220.06;6135834;23;20006;-91
2023/09/22 01:11:34;;;;;;;10.55;5.43;;;;;;;20.06;65.08;99225.31;6135902;23;20013;-92
2023/09/22 01:14:02;;;;;;;6.53;4.72;;;;;;;20.04;64.94;99225.63;6134637;23;20001;-92
2023/09/22 01:16:29;;;;;;;7.28;4.70;;;;;;;20.11;65.08;99247.78;6135776;23;20002;-92
2023/09/22 01:18:55;;;;;;;7.82;4.90;;;;;;;20.05;65.12;99234.66;6134225;23;20001;-92
2023/09/22 01:21:31;;;;;;;7.45;4.30;;;;;;;20.02;64.95;99241.56;6133794;23;19994;-91
2023/09/22 01:23:58;;;;;;;8.18;4.00;;;;;;;19.97;65.33;99239.84;6160434;23;20060;-91
2023/09/22 01:26:24;;;;;;;15.48;5.10;;;;;;;19.97;64.99;99239.03;6135039;23;20420;-92
2023/09/22 01:28:49;;;;;;;11.85;4.72;;;;;;;20.03;64.98;99234.97;6159310;23;20001;-92
2023/09/22 01:31:16;;;;;;;10.18;4.65;;;;;;;19.90;65.27;99225.09;6108396;23;20083;-92
2023/09/22 01:33:41;;;;;;;8.77;4.75;;;;;;;19.95;65.63;99244.03;6134202;23;20009;-91
2023/09/22 01:36:07;;;;;;;8.60;4.82;;;;;;;19.85;65.84;99230.78;6134839;23;20052;-92
2023/09/22 01:38:32;;;;;;;8.07;4.45;;;;;;;19.78;65.75;99228.59;6159985;23;20001;-92
2023/09/22 01:40:58;;;;;;;13.32;5.00;;;;;;;19.75;65.75;99226.50;6135119;23;20029;-92
2023/09/22 01:43:24;;;;;;;6.65;4.68;;;;;;;19.75;65.79;99231.97;6134292;23;20008;-92
2023/09/22 01:45:49;;;;;;;7.47;4.38;;;;;;;19.67;65.91;99232.81;6134507;23;19998;-91
2023/09/22 01:48:15;;;;;;;7.80;4.45;;;;;;;19.65;66.13;99222.25;6135092;23;20476;-91
2023/09/22 01:50:41;;;;;;;8.43;4.80;;;;;;;19.64;66.07;99225.28;6134027;23;20010;-91
2023/09/22 01:53:10;;;;;;;6.18;4.30;;;;;;;19.66;65.99;99233.97;6132241;23;20005;-91
2023/09/22 01:55:39;;;;;;;10.30;4.88;;;;;;;19.65;66.18;99221.41;6109908;23;20029;-92
2023/09/22 01:58:05;;;;;;;6.78;4.38;;;;;;;19.59;66.57;99223.56;6134459;23;20001;-91
2023/09/22 02:00:33;;;;;;;10.05;5.18;;;;;;;19.59;66.87;99220.84;6133800;23;19998;-91
2023/09/22 02:02:58;;;;;;;6.68;4.80;;;;;;;19.51;66.96;99217.03;6135862;23;19997;-91
2023/09/22 02:05:24;;;;;;;10.63;4.80;;;;;;;19.54;67.05;99232.72;6132376;23;20491;-92
2023/09/22 02:07:50;;;;;;;9.20;4.85;;;;;;;19.50;66.84;99225.53;6134240;23;20025;-92
2023/09/22 02:10:15;;;;;;;7.93;4.40;;;;;;;19.49;67.27;99227.47;6135140;23;19998;-91
2023/09/22 02:12:42;;;;;;;13.20;4.88;;;;;;;19.46;66.87;99227.34;6135375;23;20079;-92
2023/09/22 02:15:12;;;;;;;11.65;5.35;;;;;;;19.38;67.61;99213.41;6111114;23;20001;-93
2023/09/22 02:17:38;;;;;;;9.13;5.03;;;;;;;19.40;67.48;99226.72;6110623;23;20005;-91
2023/09/22 02:20:22;;;;;;;8.48;4.80;;;;;;;19.38;67.28;99226.25;6135378;23;20004;-90
2023/09/22 02:22:55;;;;;;;9.68;5.15;;;;;;;19.28;67.73;99213.81;6140593;23;20336;-92
2023/09/22 02:25:21;;;;;;;12.55;5.22;;;;;;;19.34;67.96;99234.31;6136942;23;20021;-91
2023/09/22 02:27:47;;;;;;;6.72;4.75;;;;;;;19.33;68.08;99249.09;6137534;23;20096;-91
2023/09/22 02:30:14;;;;;;;8.18;4.65;;;;;;;19.30;68.11;99241.56;6111272;23;20014;-91
2023/09/22 02:32:41;;;;;;;9.05;5.05;;;;;;;19.20;68.41;99239.22;6113013;23;19997;-90
2023/09/22 02:35:06;;;;;;;11.95;5.07;;;;;;;19.19;68.31;99232.13;6136076;23;20037;-92
2023/09/22 02:37:32;;;;;;;8.40;4.90;;;;;;;19.10;68.49;99232.19;6135949;23;20330;-91
2023/09/22 02:39:57;;;;;;;10.18;5.10;;;;;;;19.12;68.21;99242.78;6135803;23;20010;-91
2023/09/22 02:42:23;;;;;;;11.77;5.93;;;;;;;19.06;68.68;99236.69;6136824;23;19981;-91
2023/09/22 02:44:49;;;;;;;9.50;5.65;;;;;;;18.99;68.45;99233.69;6136343;23;20008;-89
2023/09/22 02:47:15;;;;;;;9.52;5.90;;;;;;;19.02;68.76;99241.22;6134323;23;20029;-91
2023/09/22 02:49:41;;;;;;;8.48;5.53;;;;;;;18.88;68.79;99229.72;6136047;23;20001;-92
2023/09/22 02:52:06;;;;;;;10.73;5.88;;;;;;;18.94;68.67;99242.84;6135732;23;20117;-93
2023/09/22 02:54:32;;;;;;;8.52;6.20;;;;;;;18.89;68.97;99248.50;6135241;23;20352;-91
2023/09/22 02:56:57;;;;;;;7.95;5.80;;;;;;;18.84;68.98;99251.38;6135548;23;20005;-90
2023/09/22 02:59:23;;;;;;;8.82;6.13;;;;;;;18.93;69.10;99271.28;6109188;23;20072;-91
2023/09/22 03:01:49;;;;;;;10.05;5.93;;;;;;;18.81;69.35;99262.97;6135782;23;20025;-91
2023/09/22 03:04:15;;;;;;;14.90;6.25;;;;;;;18.80;69.23;99253.19;6111602;23;20020;-91
2023/09/22 03:06:40;;;;;;;11.07;5.78;;;;;;;18.88;69.20;99262.47;6135105;23;20032;-92
2023/09/22 03:09:09;;;;;;;9.20;5.75;;;;;;;18.87;69.33;99256.22;6135363;23;20009;-91
2023/09/22 03:11:35;;;;;;;7.70;5.38;;;;;;;18.93;69.05;99263.09;6134868;23;20001;-91
2023/09/22 03:14:03;;;;;;;11.10;5.82;;;;;;;18.92;68.99;99257.94;6135801;23;19998;-93
2023/09/22 03:16:28;;;;;;;20.80;5.65;;;;;;;19.00;68.93;99268.03;6135460;23;20006;-91
2023/09/22 03:18:54;;;;;;;8.35;5.85;;;;;;;18.98;68.74;99256.66;6135325;23;20012;-91
2023/09/22 03:21:22;;;;;;;11.38;4.90;;;;;;;18.98;68.83;99251.97;6161950;23;19993;-91
2023/09/22 03:23:54;;;;;;;9.57;5.63;;;;;;;19.03;68.67;99251.03;6136182;23;19997;-92
2023/09/22 03:26:20;;;;;;;11.05;6.10;;;;;;;19.10;68.43;99258.69;6134956;23;20013;-92
2023/09/22 03:28:49;;;;;;;9.88;6.20;;;;;;;19.18;68.65;99260.59;6136603;23;19998;-91
2023/09/22 03:31:16;;;;;;;9.50;5.63;;;;;;;19.15;68.38;99256.59;6135638;23;20005;-91
2023/09/22 03:33:42;;;;;;;9.20;5.90;;;;;;;19.23;68.36;99265.84;6136050;23;20076;-91
2023/09/22 03:36:12;;;;;;;19.02;6.07;;;;;;;19.24;68.58;99272.91;6136133;23;20065;-91
2023/09/22 03:38:38;;;;;;;9.45;5.60;;;;;;;19.27;68.11;99280.44;6135731;23;19997;-91
2023/09/22 03:41:07;;;;;;;11.73;5.38;;;;;;;19.24;68.00;99269.41;6111763;23;19997;-92
2023/09/22 03:43:33;;;;;;;11.77;5.63;;;;;;;19.32;67.95;99277.53;6136110;23;20024;-91
2023/09/22 03:45:58;;;;;;;10.65;5.47;;;;;;;19.32;67.99;99273.97;6135674;23;20127;-92
2023/09/22 03:48:24;;;;;;;14.30;5.30;;;;;;;19.27;67.81;99276.91;6111214;23;20384;-92
2023/09/22 03:50:49;;;;;;;11.73;5.35;;;;;;;19.30;67.92;99276.25;6135576;23;20013;-92
2023/09/22 03:53:15;;;;;;;10.35;5.82;;;;;;;19.22;67.91;99274.38;6135068;23;20100;-92
2023/09/22 03:55:40;;;;;;;11.93;6.30;;;;;;;19.18;68.14;99279.69;6134484;23;20006;-92
2023/09/22 03:58:06;;;;;;;12.02;5.50;;;;;;;19.09;68.00;99284.38;6135059;23;20008;-91
2023/09/22 04:00:32;;;;;;;9.15;5.95;;;;;;;19.09;67.79;99279.72;6111410;23;20001;-92
2023/09/22 04:02:59;;;;;;;11.40;6.22;;;;;;;19.03;67.93;99275.56;6135247;23;19997;-91
2023/09/22 04:05:25;;;;;;;9.80;5.82;;;;;;;19.05;68.12;99283.41;6111800;23;20013;-92
2023/09/22 04:07:51;;;;;;;11.18;6.20;;;;;;;19.01;68.51;99287.94;6112217;23;20009;-91
2023/09/22 04:10:17;;;;;;;11.95;6.50;;;;;;;18.91;68.56;99276.25;6134846;23;20090;-92
2023/09/22 04:12:43;;;;;;;17.85;6.32;;;;;;;18.91;68.44;99294.56;6134275;23;20002;-90
2023/09/22 04:15:11;;;;;;;15.25;6.63;;;;;;;18.91;68.70;99298.09;6135294;23;19993;-92
2023/09/22 04:17:38;;;;;;;11.77;6.55;;;;;;;18.86;68.42;99300.19;6136312;23;20021;-91
2023/09/22 04:20:08;;;;;;;13.18;6.55;;;;;;;18.73;68.93;99278.19;6137198;23;20001;-92
2023/09/22 04:22:34;;;;;;;15.77;6.40;;;;;;;18.81;68.86;99295.72;6112069;23;20025;-90
2023/09/22 04:25:00;;;;;;;12.48;7.90;;;;;;;18.67;69.27;99284.94;6158588;23;20029;-91
2023/09/22 04:27:32;;;;;;;14.27;7.72;;;;;;;18.71;69.33;99288.63;6135617;23;20084;-90
2023/09/22 04:30:07;;;;;;;18.73;7.60;;;;;;;18.77;69.51;99303.69;6137604;23;20021;-92
2023/09/22 04:32:33;;;;;;;17.15;7.65;;;;;;;18.65;69.36;99270.03;6137421;23;20017;-92
2023/09/22 04:35:03;;;;;;;12.77;7.38;;;;;;;18.82;69.62;99307.41;6160632;23;20005;-91
2023/09/22 04:37:28;;;;;;;18.45;8.13;;;;;;;18.71;69.25;99279.66;6136326;23;20348;-93
2023/09/22 04:39:54;;;;;;;25.20;10.15;;;;;;;18.89;69.52;99294.88;6133862;23;19997;-92
2023/09/22 04:42:22;;;;;;;25.90;12.77;;;;;;;18.88;68.81;99281.56;6110796;23;19997;-92
2023/09/22 04:44:50;;;;;;;21.05;9.80;;;;;;;18.93;69.01;99282.19;6135452;23;19998;-92
2023/09/22 04:47:16;;;;;;;17.58;8.60;;;;;;;19.13;68.70;99310.69;6135923;23;20084;-93
2023/09/22 04:49:43;;;;;;;16.63;9.20;;;;;;;19.05;68.81;99299.78;6135252;23;20016;-91
2023/09/22 04:52:10;;;;;;;16.17;8.10;;;;;;;19.09;68.74;99292.56;6138852;23;20048;-93
2023/09/22 04:54:40;;;;;;;20.17;9.90;;;;;;;19.13;67.96;99285.31;6163038;23;20071;-92
2023/09/22 04:57:05;;;;;;;24.40;8.93;;;;;;;19.25;67.79;99287.34;6139295;23;20013;-91
2023/09/22 04:59:31;;;;;;;22.70;8.57;;;;;;;19.33;68.00;99300.16;6137687;23;20005;-92
2023/09/22 05:01:57;;;;;;;15.18;8.80;;;;;;;19.47;68.14;99313.59;6136207;23;20330;-92
2023/09/22 05:04:23;;;;;;;19.67;8.65;;;;;;;19.48;67.74;99305.06;6135967;23;20088;-92
2023/09/22 05:06:50;;;;;;;23.05;8.77;;;;;;;19.55;67.85;99305.34;6112052;23;20032;-92
2023/09/22 05:09:15;;;;;;;21.25;8.65;;;;;;;19.43;67.30;99290.81;6135701;23;19982;-92
2023/09/22 05:11:41;;;;;;;13.80;8.38;;;;;;;19.63;67.29;99317.38;6132739;23;20020;-91
2023/09/22 05:14:07;;;;;;;15.80;8.50;;;;;;;19.75;67.13;99330.31;6133838;23;20014;-93
2023/09/22 05:16:32;;;;;;;19.60;8.35;;;;;;;19.62;67.81;99314.97;6134843;23;20009;-91
2023/09/22 05:18:59;;;;;;;16.70;8.30;;;;;;;19.71;67.62;99332.13;6108668;23;20009;-91
2023/09/22 05:21:25;;;;;;;27.35;15.50;;;;;;;19.62;67.64;99318.50;6136660;23;19998;-94
2023/09/22 05:23:51;;;;;;;20.30;9.02;;;;;;;19.77;67.13;99350.72;6111305;23;19997;-93
2023/09/22 05:26:17;;;;;;;19.27;8.43;;;;;;;19.67;66.55;99318.31;6137232;23;20001;-94
2023/09/22 05:28:43;;;;;;;19.85;9.35;;;;;;;19.93;66.36;99353.69;6138839;23;19997;-94
2023/09/22 05:31:09;;;;;;;15.43;8.57;;;;;;;19.93;66.82;99325.56;6111975;23;20013;-94
2023/09/22 05:33:35;;;;;;;13.55;7.95;;;;;;;20.14;66.19;99352.91;6136251;23;20024;-94
2023/09/22 05:36:07;;;;;;;18.98;9.82;;;;;;;20.06;65.83;99332.69;6136577;23;20006;-94
2023/09/22 05:38:33;;;;;;;20.83;9.23;;;;;;;20.09;66.29;99351.19;6135319;23;20028;-94
2023/09/22 05:40:58;;;;;;;22.60;9.75;;;;;;;20.16;65.82;99353.38;6138453;23;20428;-94
2023/09/22 05:43:24;;;;;;;21.80;10.10;;;;;;;20.05;66.60;99327.59;6136627;23;20016;-94
2023/09/22 05:45:54;;;;;;;17.00;9.60;;;;;;;20.02;66.99;99329.03;6112827;23;20005;-95
2023/09/22 05:48:21;;;;;;;18.98;9.98;;;;;;;20.08;67.17;99338.63;6136952;23;20093;-94
2023/09/22 05:50:55;;;;;;;23.83;10.32;;;;;;;20.14;66.80;99329.09;6136495;23;20006;-95
2023/09/22 05:53:20;;;;;;;21.15;10.27;;;;;;;20.20;66.97;99329.69;6137509;23;20057;-92
2023/09/22 05:55:49;;;;;;;25.38;11.00;;;;;;;20.33;67.18;99350.50;6136426;23;20009;-89
2023/09/22 05:58:16;;;;;;;24.55;12.45;;;;;;;20.18;67.04;99321.81;6158667;23;20021;-90
2023/09/22 06:00:45;;;;;;;20.48;11.77;;;;;;;20.30;66.85;99329.31;6133590;23;20401;-96
2023/09/22 06:03:12;;;;;;;33.42;15.02;;;;;;;20.29;67.15;99315.97;6140974;23;20005;-96
2023/09/22 06:05:37;;;;;;;23.77;13.50;;;;;;;20.44;66.35;99330.94;6116323;23;19997;-94
2023/09/22 06:08:05;;;;;;;28.15;14.13;;;;;;;20.43;66.18;99338.34;6142275;23;20005;-95
2023/09/22 06:10:30;;;;;;;29.35;13.27;;;;;;;20.61;66.01;99343.69;6138947;23;20076;-93
2023/09/22 06:12:56;;;;;;;28.15;13.38;;;;;;;20.56;66.27;99331.00;6137619;23;20001;-92
2023/09/22 06:15:22;;;;;;;25.58;12.32;;;;;;;20.59;65.90;99328.44;6137737;23;19994;-94
2023/09/22 06:17:48;;;;;;;40.30;14.70;;;;;;;20.71;65.37;99329.59;6137585;23;20084;-92
2023/09/22 06:20:15;;;;;;;27.73;13.65;;;;;;;20.77;65.29;99322.78;6135682;23;20004;-93
2023/09/22 06:22:44;;;;;;;15.60;9.25;;;;;;;20.89;64.64;99332.97;6112630;23;20008;-92
2023/09/22 06:25:15;;;;;;;22.42;10.65;;;;;;;20.90;63.42;99329.91;6138186;23;20013;-93
2023/09/22 06:27:43;;;;;;;22.65;8.90;;;;;;;21.06;62.89;99340.97;6138389;23;19998;-93
2023/09/22 06:30:11;;;;;;;13.57;6.88;;;;;;;21.08;61.94;99335.16;6113422;23;20001;-92
2023/09/22 06:32:41;;;;;;;12.80;7.07;;;;;;;21.10;61.11;99327.41;6137038;23;20009;-93
2023/09/22 06:35:11;;;;;;;14.13;6.25;;;;;;;21.10;60.55;99330.16;6138643;23;20001;-92
2023/09/22 06:37:38;;;;;;;10.27;6.03;;;;;;;21.19;59.76;99336.34;6138849;23;20012;-93
2023/09/22 06:40:11;;;;;;;9.75;5.18;;;;;;;21.14;59.77;99329.13;6113487;23;20011;-92
2023/09/22 06:42:38;;;;;;;8.73;5.22;;;;;;;21.37;59.55;99353.34;6138765;23;20001;-92
2023/09/22 06:45:04;;;;;;;12.85;5.82;;;;;;;21.40;59.61;99366.38;6137213;23;20109;-91
2023/09/22 06:47:33;;;;;;;11.30;4.28;;;;;;;21.36;59.01;99359.97;6138739;23;20033;-92
2023/09/22 06:49:59;;;;;;;8.13;4.90;;;;;;;21.40;59.48;99360.91;6138736;23;20460;-94
2023/09/22 06:52:25;;;;;;;12.68;5.25;;;;;;;21.48;59.85;99354.53;6137894;23;20010;-94
2023/09/22 06:54:50;;;;;;;11.55;5.90;;;;;;;21.60;60.07;99370.16;6137284;23;20029;-92
2023/09/22 06:57:16;;;;;;;13.13;6.30;;;;;;;21.55;59.72;99362.19;6137428;23;20002;-93
2023/09/22 06:59:41;;;;;;;19.80;6.82;;;;;;;21.64;59.91;99373.03;6137876;23;20005;-93
2023/09/22 07:02:08;;;;;;;13.45;5.70;;;;;;;21.79;60.08;99388.81;6136663;23;20397;-93
2023/09/22 07:04:36;;;;;;;12.15;5.00;;;;;;;21.76;59.34;99370.28;6112548;23;20456;-93
2023/09/22 07:07:02;;;;;;;12.68;5.45;;;;;;;22.01;58.24;99393.00;6161296;23;20001;-93
2023/09/22 07:09:27;;;;;;;13.35;5.45;;;;;;;22.08;57.97;99386.91;6135692;23;20005;-92
2023/09/22 07:11:54;;;;;;;15.05;5.10;;;;;;;22.10;58.19;99379.97;6136640;23;20002;-92
2023/09/22 07:14:20;;;;;;;9.07;5.38;;;;;;;22.28;57.75;99390.69;6137028;23;20081;-94
2023/09/22 07:16:54;;;;;;;8.15;4.40;;;;;;;22.31;57.39;99379.03;6159815;23;20013;-92
2023/09/22 07:19:22;;;;;;;14.02;4.63;;;;;;;22.26;56.31;99376.53;6112184;23;20098;-93
2023/09/22 07:21:48;;;;;;;9.48;4.93;;;;;;;22.42;56.02;99377.41;6137764;23;20070;-92
2023/09/22 07:24:15;;;;;;;13.23;5.75;;;;;;;22.58;55.42;99378.25;6137656;23;20029;-92
2023/09/22 07:26:42;;;;;;;11.07;3.75;;;;;;;22.71;55.39;99380.97;6112114;23;20001;-92
2023/09/22 07:29:07;;;;;;;12.88;4.55;;;;;;;22.79;54.38;99386.28;6137219;23;20012;-93
2023/09/22 07:31:33;;;;;;;10.75;4.72;;;;;;;22.95;54.54;99378.09;6162725;23;19985;-92
2023/09/22 07:34:07;;;;;;;10.90;5.93;;;;;;;23.06;54.88;99364.69;6161802;23;20008;-90
2023/09/22 07:36:34;;;;;;;10.52;6.20;;;;;;;23.32;54.92;99383.38;6138751;23;20004;-92
2023/09/22 07:38:59;;;;;;;7.88;4.25;;;;;;;23.42;53.97;99373.03;6136664;23;20001;-93
2023/09/22 07:41:26;;;;;;;10.35;4.72;;;;;;;23.50;53.30;99364.59;6162297;23;20001;-92
2023/09/22 07:43:52;;;;;;;13.00;4.80;;;;;;;23.70;52.98;99372.91;6137039;23;20445;-91
2023/09/22 07:46:22;;;;;;;14.82;4.22;;;;;;;23.80;52.09;99353.16;6160577;23;20349;-92
2023/09/22 07:48:50;;;;;;;9.30;4.13;;;;;;;23.93;51.00;99356.59;6138452;23;19998;-93
2023/09/22 07:51:15;;;;;;;8.77;3.60;;;;;;;24.18;50.40;99371.69;6138627;23;20410;-92
2023/09/22 07:53:44;;;;;;;8.15;3.67;;;;;;;24.23;50.18;99351.34;6160597;23;20013;-92
2023/09/22 07:56:12;;;;;;;8.32;3.60;;;;;;;24.32;50.11;99349.19;6137928;23;20029;-92
2023/09/22 07:58:41;;;;;;;7.78;3.55;;;;;;;24.59;49.53;99377.69;6161665;23;20329;-91
2023/09/22 08:01:16;;;;;;;16.55;4.05;;;;;;;24.69;48.70;99365.28;6139245;23;19997;-95
2023/09/22 08:03:45;;;;;;;9.60;3.65;;;;;;;24.78;48.49;99357.59;6114345;23;20063;-91
2023/09/22 08:10:38;;;;;;;7.97;3.13;;;;;;;25.14;47.53;99357.47;6103051;23;20009;-92
2023/09/22 08:13:08;;;;;;;9.75;3.20;;;;;;;25.03;47.46;99340.75;6108675;23;20009;-91
2023/09/22 08:15:35;;;;;;;8.23;3.03;;;;;;;25.23;47.29;99354.50;6138642;23;20069;-90
2023/09/22 08:18:05;;;;;;;8.02;3.20;;;;;;;25.27;46.46;99344.31;6136152;23;20088;-91
2023/09/22 08:20:34;;;;;;;12.10;3.58;;;;;;;25.44;46.92;99341.06;6161411;23;20343;-94
2023/09/22 08:23:00;;;;;;;6.18;2.42;;;;;;;25.70;45.70;99350.53;6136709;23;20002;-94
2023/09/22 08:25:26;;;;;;;10.63;3.60;;;;;;;25.76;44.57;99326.97;6136294;23;20002;-93
2023/09/22 08:27:52;;;;;;;4.93;2.58;;;;;;;26.07;44.31;99344.41;6106602;23;20425;-92
2023/09/22 08:30:20;;;;;;;8.10;2.80;;;;;;;26.12;44.41;99324.72;6106932;23;20026;-93
2023/09/22 08:32:48;;;;;;;5.45;2.50;;;;;;;26.24;44.48;99329.22;6136013;23;20021;-93
2023/09/22 08:35:15;;;;;;;7.70;2.50;;;;;;;26.36;43.73;99329.00;6136140;23;20014;-92
2023/09/22 08:37:47;;;;;;;5.97;2.55;;;;;;;26.57;43.35;99345.81;6136350;23;20067;-93
2023/09/22 08:40:17;;;;;;;8.55;2.80;;;;;;;26.47;42.57;99318.06;6137414;23;20140;-92
2023/09/22 08:42:47;;;;;;;6.20;2.22;;;;;;;26.53;41.00;99314.59;6137313;23;20413;-92
2023/09/22 08:45:13;;;;;;;6.88;2.65;;;;;;;26.67;40.69;99313.97;6137426;23;20495;-92
2023/09/22 08:47:53;;;;;;;6.70;2.63;;;;;;;26.76;40.80;99305.38;6139191;23;19997;-94
2023/09/22 08:50:19;;;;;;;9.52;2.72;;;;;;;26.97;38.90;99335.97;6140363;23;20009;-93
2023/09/22 08:52:46;;;;;;;5.43;1.83;;;;;;;26.93;39.23;99306.72;6136002;23;20006;-92
2023/09/22 08:55:13;;;;;;;7.75;2.88;;;;;;;26.96;39.24;99312.31;6135040;23;20079;-91
2023/09/22 08:57:44;;;;;;;6.28;2.22;;;;;;;27.12;38.64;99312.06;6163479;23;20009;-91
2023/09/22 09:00:21;;;;;;;6.53;2.03;;;;;;;27.16;39.02;99295.47;6136942;23;20005;-92
2023/09/22 09:02:47;;;;;;;8.88;4.18;;;;;;;27.22;39.71;99285.66;6115125;23;19988;-91
2023/09/22 09:08:24;;;;;;;5.90;2.08;;;;;;;27.52;37.29;99310.41;6166464;23;20045;-91
2023/09/22 09:10:49;;;;;;;6.13;2.10;;;;;;;27.54;37.18;99302.53;6113500;23;20352;-91
2023/09/22 09:13:23;;;;;;;7.00;2.55;;;;;;;27.55;36.81;99281.97;6088456;23;20005;-95
2023/09/22 09:21:15;;;;;;;10.60;3.50;;;;;;;27.76;36.78;99273.00;6184362;22;20021;-96
2023/09/22 09:23:53;;;;;;;12.65;2.65;;;;;;;27.85;35.71;99271.84;6125241;23;20347;-96
2023/09/22 09:26:30;;;;;;;6.60;1.90;;;;;;;27.92;34.89;99269.97;6121413;23;20001;-95
2023/09/22 09:28:56;;;;;;;5.07;2.10;;;;;;;28.04;34.77;99271.59;6148671;23;19997;-96
2023/09/22 09:31:46;;;;;;;5.65;2.15;;;;;;;28.19;34.74;99283.53;6123057;23;20016;-96
2023/09/22 09:34:12;;;;;;;5.88;1.95;;;;;;;28.18;34.29;99277.19;6147888;23;20032;-95
2023/09/22 09:36:38;;;;;;;8.82;2.13;;;;;;;28.21;33.71;99261.78;6127829;23;20001;-95
2023/09/22 09:39:13;;;;;;;6.68;2.17;;;;;;;28.33;34.04;99277.25;6152041;23;20079;-96
2023/09/22 09:41:57;;;;;;;4.38;1.70;;;;;;;28.23;33.92;99255.84;6159804;23;20005;-96
2023/09/22 09:44:34;;;;;;;4.38;1.65;;;;;;;28.53;33.59;99286.03;6110994;23;20013;-96
2023/09/22 09:47:09;;;;;;;5.63;1.90;;;;;;;28.39;33.41;99250.75;6113280;23;20005;-96
2023/09/22 09:49:40;;;;;;;6.57;1.75;;;;;;;28.54;32.43;99248.84;6159364;23;20005;-95
2023/09/22 09:52:18;;;;;;;;;;;;;;;28.74;32.27;99272.22;6110565;23;20016;-96
2023/09/22 09:54:55;;;;;;;6.22;1.80;;;;;;;28.67;32.88;99260.34;6159248;23;19912;-96
2023/09/22 09:57:34;;;;;;;7.88;2.38;;;;;;;28.66;32.48;99244.88;6164439;23;20015;-96
2023/09/22 10:03:54;;;;;;;4.75;1.70;;;;;;;28.94;32.59;99256.00;6123478;23;20018;-96
2023/09/22 10:08:57;;;;;;;3.83;1.40;;;;;;;28.99;31.84;99235.38;6169602;23;20363;-95
2023/09/22 10:11:25;;;;;;;7.72;1.73;;;;;;;29.02;32.45;99229.06;6117097;23;20029;-94
2023/09/22 10:13:51;;;;;;;4.15;1.42;;;;;;;29.13;31.37;99231.84;6113499;23;19998;-93
2023/09/22 10:16:28;;;;;;;6.40;1.90;;;;;;;29.23;31.63;99236.59;6138379;23;20006;-95
2023/09/22 10:18:59;;;;;;;4.28;1.48;;;;;;;29.22;31.45;99229.50;6113290;23;20076;-93
2023/09/22 10:21:30;;;;;;;4.68;1.58;;;;;;;29.34;30.79;99236.59;6113309;23;19997;-96
2023/09/22 10:27:18;;;;;;;7.10;2.03;;;;;;;29.30;31.60;99210.84;6163185;23;20008;-94
2023/09/22 10:29:53;;;;;;;7.18;1.75;;;;;;;29.39;30.94;99220.34;6114264;23;20029;-95
2023/09/22 10:32:26;;;;;;;7.80;1.90;;;;;;;29.42;31.48;99200.09;6118631;23;20009;-96
2023/09/22 10:35:10;;;;;;;4.30;1.40;;;;;;;29.51;31.04;99213.56;6118743;23;20001;-94
2023/09/22 10:37:37;;;;;;;6.43;1.77;;;;;;;29.61;31.22;99209.97;6139753;23;20084;-94
2023/09/22 10:40:12;;;;;;;9.77;2.33;;;;;;;29.67;30.82;99217.88;6114103;23;20012;-93
2023/09/22 10:42:42;;;;;;;6.57;1.73;;;;;;;29.58;31.38;99199.66;6137648;23;20341;-93
2023/09/22 10:45:08;;;;;;;7.80;1.63;;;;;;;29.61;31.30;99193.31;6112506;23;20001;-91
2023/09/22 10:48:05;;;;;;;4.32;1.52;;;;;;;29.69;31.94;99188.53;6134536;23;20032;-95
2023/09/22 10:50:31;;;;;;;5.93;2.15;;;;;;;29.79;32.44;99198.81;6136157;23;19997;-92
2023/09/22 10:53:02;;;;;;;4.10;1.80;;;;;;;29.91;31.78;99194.03;6136457;23;20005;-93
2023/09/22 10:55:36;;;;;;;6.43;1.98;;;;;;;30.06;31.51;99206.63;6137570;23;19997;-95
2023/09/22 10:58:05;;;;;;;5.85;2.05;;;;;;;29.96;32.16;99180.50;6136835;23;20053;-91
2023/09/22 11:00:35;;;;;;;8.02;2.40;;;;;;;30.05;31.26;99182.03;6110798;23;20045;-92
2023/09/22 11:03:11;;;;;;;9.38;2.08;;;;;;;30.00;31.36;99188.81;6111384;23;20001;-93
2023/09/22 11:05:46;;;;;;;7.38;1.92;;;;;;;30.08;30.72;99175.69;6112372;23;20005;-94
2023/09/22 11:08:23;;;;;;;5.93;1.80;;;;;;;30.22;30.56;99184.72;6106338;23;20398;-91
2023/09/22 11:10:49;;;;;;;7.32;2.08;;;;;;;30.18;31.05;99177.63;6108318;23;20002;-95
2023/09/22 11:13:15;;;;;;;11.27;2.30;;;;;;;30.27;31.00;99171.59;6107986;23;19998;-94
2023/09/22 11:15:49;;;;;;;5.03;1.70;;;;;;;30.37;31.02;99179.09;6133841;23;19990;-93
2023/09/22 11:18:20;;;;;;;6.35;1.77;;;;;;;30.31;30.54;99158.50;6131650;23;20416;-96
2023/09/22 11:20:46;;;;;;;6.72;2.25;;;;;;;30.35;30.54;99168.41;6133482;23;20002;-95
2023/09/22 11:23:18;;;;;;;7.93;1.90;;;;;;;30.37;30.92;99165.22;6133225;23;20005;-94
2023/09/22 11:25:53;;;;;;;11.88;2.50;;;;;;;30.39;30.91;99148.94;6107383;23;20002;-93
2023/09/22 11:28:23;;;;;;;6.07;2.38;;;;;;;30.52;30.57;99149.22;6107457;23;20360;-94
2023/09/22 11:30:50;;;;;;;7.00;2.17;;;;;;;30.51;30.56;99139.31;6108097;23;20038;-93
2023/09/22 11:33:16;;;;;;;9.57;2.45;;;;;;;30.50;30.34;99141.28;6106801;23;20040;-94
2023/09/22 11:35:42;;;;;;;12.82;3.10;;;;;;;30.59;30.88;99143.63;6105000;23;20085;-93
2023/09/22 11:38:39;;;;;;;9.50;2.65;;;;;;;30.62;31.19;99154.69;6105918;23;19994;-93
2023/09/22 11:41:13;;;;;;;7.97;2.33;;;;;;;30.63;30.19;99144.34;6131797;23;20437;-92
2023/09/22 11:43:49;;;;;;;10.52;2.35;;;;;;;30.59;30.60;99126.94;6104923;23;20062;-93
2023/09/22 11:46:15;;;;;;;16.02;3.53;;;;;;;30.74;30.84;99142.28;6104985;23;20004;-91
2023/09/22 11:49:07;;;;;;;7.55;2.17;;;;;;;30.85;29.99;99158.06;6131042;23;20430;-92
2023/09/22 11:51:51;;;;;;;17.10;3.28;;;;;;;30.90;30.14;99141.78;6131831;23;20005;-92
2023/09/22 11:54:21;;;;;;;8.35;2.53;;;;;;;30.86;30.00;99129.06;6129103;23;20009;-93
2023/09/22 11:56:47;;;;;;;11.52;2.85;;;;;;;30.93;29.81;99129.81;6131291;23;20013;-93